Time;durP1;ratioP1;P1;durP2;ratioP2;P2;SDS_P1;SDS_P2;PMS_P1;PMS_P2;Temp;Humidity;BMP_temperature;BMP_pressure;BME280_temperature;BME280_humidity;BME280_pressure;Samples;Min_cycle;Max_cycle;Signal;HPM_P1;HPM_P2
2022/10/03 00:01:21;;;;;;;4.97;2.90;;;;;;;;;;4975300;28;20464;-53
2022/10/03 00:03:47;;;;;;;5.13;3.40;;;;;;;;;;4982893;28;20470;-53
2022/10/03 00:06:24;;;;;;;4.87;2.80;;;;;;;;;;4989462;28;20186;-53
2022/10/03 00:09:05;;;;;;;6.33;2.93;;;;;;;;;;4990407;28;20171;-53
2022/10/03 00:11:36;;;;;;;3.77;3.20;;;;;;;;;;4981135;28;20193;-53
2022/10/03 00:14:21;;;;;;;5.23;3.23;;;;;;;;;;4971412;28;20387;-53
2022/10/03 00:17:06;;;;;;;4.10;3.07;;;;;;;;;;4988663;28;20274;-53
2022/10/03 00:19:50;;;;;;;6.53;3.40;;;;;;;;;;4988396;28;20665;-55
2022/10/03 00:22:33;;;;;;;4.33;3.10;;;;;;;;;;4989997;28;20551;-53
2022/10/03 00:25:17;;;;;;;4.13;2.87;;;;;;;;;;4989127;28;20204;-53
2022/10/03 00:27:46;;;;;;;3.43;3.13;;;;;;;;;;5010105;28;20634;-54
2022/10/03 00:30:20;;;;;;;4.87;2.87;;;;;;;;;;4991740;28;20179;-53
2022/10/03 00:32:53;;;;;;;3.23;2.93;;;;;;;;;;4986419;28;20682;-52
2022/10/03 00:35:19;;;;;;;4.37;3.10;;;;;;;;;;4987889;28;20640;-53
2022/10/03 00:37:49;;;;;;;3.40;2.70;;;;;;;;;;4988702;28;20717;-53
2022/10/03 00:40:18;;;;;;;3.60;2.83;;;;;;;;;;4988651;28;20618;-53
2022/10/03 00:42:50;;;;;;;5.10;2.77;;;;;;;;;;4988333;28;20534;-53
2022/10/03 00:45:44;;;;;;;6.53;3.40;;;;;;;;;;4986974;28;20187;-52
2022/10/03 00:48:40;;;;;;;4.23;2.83;;;;;;;;;;4989119;28;20307;-52
2022/10/03 00:51:27;;;;;;;3.80;2.40;;;;;;;;;;4994758;28;20627;-52
2022/10/03 00:53:56;;;;;;;3.13;2.70;;;;;;;;;;4989410;28;20159;-53
2022/10/03 00:56:22;;;;;;;5.73;2.83;;;;;;;;;;4988125;28;20748;-53
2022/10/03 00:58:51;;;;;;;2.97;2.63;;;;;;;;;;4987858;28;20187;-54
2022/10/03 01:01:24;;;;;;;4.20;2.60;;;;;;;;;;4987474;28;20404;-54
2022/10/03 01:03:55;;;;;;;7.37;3.27;;;;;;;;;;4987823;28;20186;-53
2022/10/03 01:06:41;;;;;;;4.20;2.57;;;;;;;;;;4983088;28;20198;-52
2022/10/03 01:09:10;;;;;;;3.13;2.83;;;;;;;;;;4985373;28;20594;-54
2022/10/03 01:11:52;;;;;;;6.27;2.80;;;;;;;;;;4986239;28;20237;-54
2022/10/03 01:14:48;;;;;;;3.60;2.87;;;;;;;;;;4991456;28;20457;-52
2022/10/03 01:17:18;;;;;;;4.53;2.80;;;;;;;;;;4997726;28;20179;-53
2022/10/03 01:19:50;;;;;;;4.13;2.70;;;;;;;;;;4992574;28;20236;-53
2022/10/03 01:22:36;;;;;;;3.67;2.77;;;;;;;;;;4987323;28;20184;-53
2022/10/03 01:25:17;;;;;;;3.70;2.77;;;;;;;;;;4988906;28;20179;-53
2022/10/03 01:30:54;;;;;;;4.20;2.53;;;;;;;;;;4993665;28;20642;-52
2022/10/03 01:33:26;;;;;;;3.13;2.70;;;;;;;;;;4983296;28;20222;-54
2022/10/03 01:35:52;;;;;;;5.00;2.83;;;;;;;;;;4989593;28;20179;-53
2022/10/03 01:38:33;;;;;;;4.43;2.40;;;;;;;;;;4986148;28;20210;-53
2022/10/03 01:41:05;;;;;;;3.23;2.50;;;;;;;;;;4988270;28;20264;-52
2022/10/03 01:43:43;;;;;;;3.33;2.53;;;;;;;;;;4987614;28;20622;-52
2022/10/03 01:46:28;;;;;;;3.00;2.63;;;;;;;;;;4998601;28;20191;-53
2022/10/03 01:49:14;;;;;;;3.33;2.30;;;;;;;;;;4967287;28;20194;-53
2022/10/03 01:51:41;;;;;;;4.50;2.47;;;;;;;;;;4957935;28;20311;-54
2022/10/03 01:54:18;;;;;;;3.60;2.37;;;;;;;;;;4963242;28;20247;-52
2022/10/03 01:57:00;;;;;;;3.97;2.50;;;;;;;;;;4951806;28;20179;-52
2022/10/03 01:59:36;;;;;;;3.77;2.43;;;;;;;;;;4965964;28;20185;-52
2022/10/03 02:02:11;;;;;;;2.87;2.43;;;;;;;;;;4961583;28;20586;-52
2022/10/03 02:04:37;;;;;;;4.43;2.87;;;;;;;;;;4968380;28;20244;-53
2022/10/03 02:07:20;;;;;;;3.77;2.60;;;;;;;;;;4967117;28;20641;-54
2022/10/03 02:09:52;;;;;;;3.43;2.40;;;;;;;;;;4956767;28;20168;-53
2022/10/03 02:12:21;;;;;;;3.33;2.90;;;;;;;;;;4967945;28;20199;-52
2022/10/03 02:15:06;;;;;;;5.13;2.60;;;;;;;;;;4968177;28;20262;-52
2022/10/03 02:17:43;;;;;;;5.83;2.80;;;;;;;;;;4966153;28;20182;-52
2022/10/03 02:20:22;;;;;;;3.00;2.80;;;;;;;;;;4967146;28;20230;-53
2022/10/03 02:22:53;;;;;;;6.27;3.00;;;;;;;;;;4968141;28;20168;-52
2022/10/03 02:25:34;;;;;;;5.17;2.50;;;;;;;;;;4967250;28;20183;-52
2022/10/03 02:28:22;;;;;;;6.20;3.00;;;;;;;;;;4961443;28;20186;-53
2022/10/03 02:30:54;;;;;;;4.93;3.03;;;;;;;;;;4966379;28;20270;-53
2022/10/03 02:33:21;;;;;;;3.73;2.70;;;;;;;;;;4965488;28;20551;-53
2022/10/03 02:35:47;;;;;;;3.37;2.40;;;;;;;;;;4967260;28;20519;-53
2022/10/03 02:38:19;;;;;;;4.10;2.50;;;;;;;;;;4968659;28;20249;-53
2022/10/03 02:40:47;;;;;;;6.03;3.37;;;;;;;;;;4967766;28;20263;-53
2022/10/03 02:43:20;;;;;;;4.37;3.03;;;;;;;;;;4967003;28;20278;-53
2022/10/03 02:45:58;;;;;;;2.60;2.40;;;;;;;;;;4966879;28;20266;-53
2022/10/03 02:48:24;;;;;;;2.70;2.50;;;;;;;;;;4980055;28;20223;-54
2022/10/03 02:51:13;;;;;;;5.03;2.63;;;;;;;;;;4985740;28;20194;-54
2022/10/03 02:53:52;;;;;;;8.30;2.90;;;;;;;;;;4978515;28;20219;-53
2022/10/03 02:56:18;;;;;;;5.60;2.60;;;;;;;;;;5007181;28;20695;-53
2022/10/03 02:59:03;;;;;;;2.77;2.57;;;;;;;;;;4968759;28;20181;-53
2022/10/03 03:01:29;;;;;;;2.87;2.67;;;;;;;;;;4985560;28;20273;-52
2022/10/03 03:03:55;;;;;;;3.90;2.50;;;;;;;;;;4983477;28;20306;-53
2022/10/03 03:06:31;;;;;;;2.70;2.50;;;;;;;;;;4990808;28;20242;-54
2022/10/03 03:09:04;;;;;;;3.90;2.60;;;;;;;;;;4990635;28;20177;-53
2022/10/03 03:11:48;;;;;;;3.20;2.43;;;;;;;;;;5001838;28;20194;-53
2022/10/03 03:14:33;;;;;;;2.87;2.30;;;;;;;;;;4995793;28;20269;-53
2022/10/03 03:17:07;;;;;;;7.47;6.97;;;;;;;;;;4988564;28;20672;-53
2022/10/03 03:19:48;;;;;;;2.60;2.40;;;;;;;;;;4989842;28;20692;-53
2022/10/03 03:22:19;;;;;;;3.73;2.70;;;;;;;;;;4990539;28;20186;-53
2022/10/03 03:25:00;;;;;;;3.83;2.47;;;;;;;;;;4986688;28;20695;-53
2022/10/03 03:27:45;;;;;;;2.70;2.50;;;;;;;;;;4989804;28;20183;-53
2022/10/03 03:30:13;;;;;;;5.20;2.90;;;;;;;;;;4990261;28;20210;-54
2022/10/03 03:32:48;;;;;;;4.40;2.80;;;;;;;;;;4987286;28;20264;-53
2022/10/03 03:35:33;;;;;;;3.50;2.80;;;;;;;;;;4990428;28;21715;-53
2022/10/03 03:38:18;;;;;;;3.40;2.77;;;;;;;;;;4989539;28;20202;-53
2022/10/03 03:41:14;;;;;;;3.10;2.60;;;;;;;;;;4989112;28;20183;-53
2022/10/03 03:43:55;;;;;;;3.83;2.80;;;;;;;;;;4989733;28;20202;-53
2022/10/03 03:46:21;;;;;;;4.23;2.53;;;;;;;;;;4988178;28;20531;-53
2022/10/03 03:49:07;;;;;;;4.17;2.70;;;;;;;;;;4974260;28;20235;-52
2022/10/03 03:51:33;;;;;;;4.70;2.87;;;;;;;;;;4968066;28;20184;-53
2022/10/03 03:54:12;;;;;;;3.70;2.67;;;;;;;;;;4970877;28;20486;-52
2022/10/03 03:56:53;;;;;;;3.37;2.40;;;;;;;;;;4971645;28;20172;-54
2022/10/03 03:59:37;;;;;;;4.40;2.40;;;;;;;;;;4986159;28;20654;-53
2022/10/03 04:02:10;;;;;;;6.70;3.17;;;;;;;;;;4970420;28;20183;-53
2022/10/03 04:04:45;;;;;;;2.90;2.60;;;;;;;;;;4971160;28;20505;-53
2022/10/03 04:07:14;;;;;;;4.27;3.00;;;;;;;;;;4970758;28;20176;-52
2022/10/03 04:09:53;;;;;;;2.70;2.50;;;;;;;;;;4971457;28;20168;-53
2022/10/03 04:12:26;;;;;;;4.00;2.70;;;;;;;;;;4968350;28;20231;-53
2022/10/03 04:15:27;;;;;;;3.87;2.47;;;;;;;;;;4970438;28;20554;-53
2022/10/03 04:21:00;;;;;;;2.60;2.40;;;;;;;;;;4967732;28;20751;-53
2022/10/03 04:23:29;;;;;;;4.40;2.43;;;;;;;;;;4971319;28;20625;-53
2022/10/03 04:26:34;;;;;;;3.97;2.43;;;;;;;;;;4971132;28;20275;-52
2022/10/03 04:29:26;;;;;;;3.50;2.80;;;;;;;;;;4914458;29;20189;-53
2022/10/03 04:32:08;;;;;;;2.30;2.10;;;;;;;;;;4909914;29;20272;-54
2022/10/03 04:34:39;;;;;;;3.73;2.40;;;;;;;;;;4955796;28;20549;-52
2022/10/03 04:37:07;;;;;;;5.10;3.00;;;;;;;;;;4969314;28;20200;-53
2022/10/03 04:39:47;;;;;;;3.03;2.47;;;;;;;;;;4973728;28;20413;-53
2022/10/03 04:42:31;;;;;;;2.67;2.47;;;;;;;;;;4970557;28;20245;-54
2022/10/03 04:45:09;;;;;;;6.40;2.50;;;;;;;;;;4971210;28;20587;-53
2022/10/03 04:47:51;;;;;;;2.70;2.30;;;;;;;;;;4979150;28;20268;-53
2022/10/03 04:50:20;;;;;;;3.50;2.30;;;;;;;;;;4989165;28;20195;-53
2022/10/03 04:53:05;;;;;;;2.80;2.60;;;;;;;;;;4990043;28;20570;-52
2022/10/03 04:55:43;;;;;;;3.50;2.57;;;;;;;;;;4988949;28;20286;-53
2022/10/03 04:58:14;;;;;;;3.53;2.60;;;;;;;;;;4989706;28;20257;-52
2022/10/03 05:00:57;;;;;;;4.73;2.40;;;;;;;;;;4985856;28;20190;-52
2022/10/03 05:03:42;;;;;;;3.60;2.53;;;;;;;;;;4990050;28;20243;-54
2022/10/03 05:06:17;;;;;;;2.97;2.40;;;;;;;;;;4989839;28;20715;-53
2022/10/03 05:08:57;;;;;;;2.67;2.20;;;;;;;;;;4989260;28;20646;-53
2022/10/03 05:11:43;;;;;;;7.13;2.83;;;;;;;;;;4989097;28;20557;-53
2022/10/03 05:14:33;;;;;;;3.33;2.43;;;;;;;;;;4989431;28;20163;-53
2022/10/03 05:17:09;;;;;;;2.87;2.50;;;;;;;;;;4961165;28;20654;-54
2022/10/03 05:19:53;;;;;;;4.40;2.60;;;;;;;;;;4987929;28;20175;-53
2022/10/03 05:22:34;;;;;;;2.47;2.27;;;;;;;;;;4988123;28;20183;-53
2022/10/03 05:25:06;;;;;;;3.03;2.47;;;;;;;;;;4988400;28;20657;-53
2022/10/03 05:27:39;;;;;;;3.40;2.50;;;;;;;;;;4989506;28;20183;-55
2022/10/03 05:30:08;;;;;;;3.23;2.60;;;;;;;;;;4985037;28;20183;-54
2022/10/03 05:32:50;;;;;;;4.13;2.43;;;;;;;;;;4987681;28;20203;-54
2022/10/03 05:35:41;;;;;;;2.57;2.37;;;;;;;;;;4994261;28;20669;-54
2022/10/03 05:38:10;;;;;;;3.43;2.70;;;;;;;;;;4987996;28;20249;-53
2022/10/03 05:40:39;;;;;;;3.43;2.77;;;;;;;;;;4986762;28;20226;-53
2022/10/03 05:43:34;;;;;;;2.90;2.70;;;;;;;;;;4987567;28;20179;-52
2022/10/03 05:46:04;;;;;;;2.30;2.10;;;;;;;;;;4998259;28;20179;-53
2022/10/03 05:48:46;;;;;;;4.47;2.70;;;;;;;;;;4990454;28;20286;-54
2022/10/03 05:51:42;;;;;;;2.60;2.20;;;;;;;;;;4987993;28;20570;-54
2022/10/03 05:54:39;;;;;;;2.83;2.60;;;;;;;;;;4989059;28;20634;-53
2022/10/03 05:57:20;;;;;;;4.20;2.50;;;;;;;;;;4977319;28;20187;-55
2022/10/03 05:59:59;;;;;;;2.47;2.27;;;;;;;;;;4979867;28;20538;-53
2022/10/03 06:02:43;;;;;;;5.00;2.53;;;;;;;;;;4985307;28;20210;-54
2022/10/03 06:05:15;;;;;;;5.00;2.90;;;;;;;;;;4978777;28;20287;-56
2022/10/03 06:07:41;;;;;;;6.20;3.57;;;;;;;;;;4991396;28;20171;-56
2022/10/03 06:10:37;;;;;;;5.23;3.47;;;;;;;;;;4997138;28;20241;-56
2022/10/03 06:13:15;;;;;;;8.53;4.67;;;;;;;;;;4985335;28;20225;-56
2022/10/03 06:16:00;;;;;;;4.30;3.50;;;;;;;;;;4987831;28;20185;-55
2022/10/03 06:18:26;;;;;;;7.07;3.80;;;;;;;;;;4989351;28;20186;-55
2022/10/03 06:21:10;;;;;;;9.40;3.97;;;;;;;;;;5004035;28;20252;-56
2022/10/03 06:23:53;;;;;;;7.00;4.13;;;;;;;;;;4987147;28;20273;-56
2022/10/03 06:26:37;;;;;;;5.40;3.83;;;;;;;;;;5006311;28;20186;-55
2022/10/03 06:29:12;;;;;;;7.47;4.40;;;;;;;;;;5008200;28;20657;-56
2022/10/03 06:31:41;;;;;;;6.97;4.77;;;;;;;;;;5004719;28;20178;-56
2022/10/03 06:34:17;;;;;;;7.37;4.30;;;;;;;;;;4995476;28;20198;-56
2022/10/03 06:37:01;;;;;;;10.03;4.50;;;;;;;;;;4987354;28;20170;-56
2022/10/03 06:39:46;;;;;;;7.60;4.40;;;;;;;;;;4997960;28;20688;-56
2022/10/03 06:42:18;;;;;;;7.00;4.00;;;;;;;;;;4987466;28;20200;-56
2022/10/03 06:44:55;;;;;;;6.37;4.17;;;;;;;;;;4984823;28;20187;-56
2022/10/03 06:47:37;;;;;;;12.00;5.13;;;;;;;;;;4986799;28;20971;-56
2022/10/03 06:50:18;;;;;;;7.93;5.30;;;;;;;;;;4984019;28;21115;-57
2022/10/03 06:53:03;;;;;;;12.03;5.70;;;;;;;;;;4975628;28;20359;-56
2022/10/03 06:55:41;;;;;;;10.67;6.27;;;;;;;;;;4978831;28;20720;-55
2022/10/03 06:58:10;;;;;;;10.00;6.03;;;;;;;;;;4972654;28;20182;-56
2022/10/03 07:00:48;;;;;;;7.83;5.40;;;;;;;;;;4985300;28;20191;-56
2022/10/03 07:03:26;;;;;;;6.03;4.70;;;;;;;;;;4986156;28;20177;-55
2022/10/03 07:06:11;;;;;;;14.17;5.83;;;;;;;;;;4985876;28;20674;-56
2022/10/03 07:08:39;;;;;;;7.77;5.30;;;;;;;;;;4984112;28;20180;-55
2022/10/03 07:11:19;;;;;;;8.57;5.40;;;;;;;;;;4990518;28;20645;-55
2022/10/03 07:14:11;;;;;;;9.00;5.27;;;;;;;;;;4988685;28;20566;-55
2022/10/03 07:16:46;;;;;;;7.27;5.03;;;;;;;;;;4982676;28;20733;-55
2022/10/03 07:19:15;;;;;;;8.37;6.27;;;;;;;;;;4971676;28;20202;-55
2022/10/03 07:22:07;;;;;;;6.73;4.87;;;;;;;;;;4999442;28;20487;-55
2022/10/03 07:24:46;;;;;;;6.90;4.83;;;;;;;;;;4977086;28;20480;-57
2022/10/03 07:27:24;;;;;;;7.43;5.53;;;;;;;;;;5000980;28;20191;-55
2022/10/03 07:29:50;;;;;;;9.33;5.93;;;;;;;;;;5001688;28;20189;-56
2022/10/03 07:32:35;;;;;;;7.67;4.80;;;;;;;;;;4990999;28;20226;-59
2022/10/03 07:35:20;;;;;;;8.63;5.30;;;;;;;;;;4982787;28;20545;-55
2022/10/03 07:41:03;;;;;;;8.93;5.67;;;;;;;;;;4955378;28;20201;-55
2022/10/03 07:43:40;;;;;;;11.20;6.33;;;;;;;;;;4989725;28;20810;-56
2022/10/03 07:46:32;;;;;;;6.70;5.47;;;;;;;;;;5001463;28;20636;-56
2022/10/03 07:49:17;;;;;;;10.77;6.13;;;;;;;;;;4986239;28;21201;-56
2022/10/03 07:51:59;;;;;;;7.37;5.50;;;;;;;;;;5001223;28;20198;-56
2022/10/03 07:54:28;;;;;;;12.43;6.83;;;;;;;;;;4988858;28;20190;-55
2022/10/03 07:57:02;;;;;;;9.17;6.17;;;;;;;;;;4993522;28;20646;-56
2022/10/03 07:59:48;;;;;;;12.20;6.50;;;;;;;;;;4987886;28;20178;-56
2022/10/03 08:02:14;;;;;;;6.40;5.27;;;;;;;;;;4989682;28;20733;-56
2022/10/03 08:04:47;;;;;;;8.93;6.40;;;;;;;;;;5002643;28;20187;-56
2022/10/03 08:07:17;;;;;;;9.93;6.77;;;;;;;;;;5001893;28;20194;-55
2022/10/03 08:10:22;;;;;;;8.20;6.63;;;;;;;;;;4988233;28;20191;-56
2022/10/03 08:13:08;;;;;;;11.43;6.37;;;;;;;;;;4931879;29;20232;-55
2022/10/03 08:15:49;;;;;;;11.67;6.50;;;;;;;;;;4947812;28;20184;-54
2022/10/03 08:18:35;;;;;;;13.57;8.73;;;;;;;;;;4980202;28;21171;-56
2022/10/03 08:21:02;;;;;;;12.93;7.60;;;;;;;;;;4993314;28;20190;-56
2022/10/03 08:23:47;;;;;;;15.83;7.40;;;;;;;;;;4988609;28;20530;-55
2022/10/03 08:26:40;;;;;;;13.27;7.50;;;;;;;;;;4990329;28;20187;-55
2022/10/03 08:29:12;;;;;;;10.60;5.87;;;;;;;;;;4989043;28;20233;-56
2022/10/03 08:31:58;;;;;;;8.90;6.17;;;;;;;;;;4987218;28;20198;-56
2022/10/03 08:34:43;;;;;;;13.57;6.47;;;;;;;;;;4985864;28;20191;-56
2022/10/03 08:37:27;;;;;;;11.23;6.77;;;;;;;;;;4989723;28;20289;-56
2022/10/03 08:39:55;;;;;;;10.93;6.77;;;;;;;;;;4989902;28;20653;-56
2022/10/03 08:42:39;;;;;;;13.33;5.83;;;;;;;;;;4996872;28;20178;-57
2022/10/03 08:45:18;;;;;;;9.40;6.67;;;;;;;;;;4988277;28;20577;-57
2022/10/03 08:47:45;;;;;;;8.37;5.97;;;;;;;;;;4987559;28;20736;-56
2022/10/03 08:50:35;;;;;;;10.87;6.70;;;;;;;;;;4988996;28;20160;-56
2022/10/03 08:53:01;;;;;;;11.83;6.00;;;;;;;;;;5000413;28;20210;-56
2022/10/03 08:55:46;;;;;;;10.77;6.57;;;;;;;;;;5003435;28;20190;-56
2022/10/03 08:58:12;;;;;;;8.27;5.97;;;;;;;;;;4987298;28;20590;-56
2022/10/03 09:00:57;;;;;;;10.60;6.40;;;;;;;;;;4984045;28;20178;-56
2022/10/03 09:03:35;;;;;;;13.00;7.23;;;;;;;;;;4987570;28;20530;-56
2022/10/03 09:06:01;;;;;;;14.37;7.33;;;;;;;;;;4987736;28;20277;-56
2022/10/03 09:08:36;;;;;;;11.43;7.30;;;;;;;;;;4996538;28;20323;-56
2022/10/03 09:11:21;;;;;;;13.33;7.30;;;;;;;;;;4989179;28;20217;-56
2022/10/03 09:13:54;;;;;;;12.77;8.33;;;;;;;;;;4988820;28;20203;-56
2022/10/03 09:16:39;;;;;;;13.93;8.17;;;;;;;;;;4988246;28;20559;-56
2022/10/03 09:19:23;;;;;;;16.53;8.80;;;;;;;;;;4986061;28;20259;-56
2022/10/03 09:21:49;;;;;;;12.83;8.27;;;;;;;;;;4982597;28;20186;-56
2022/10/03 09:24:49;;;;;;;21.10;9.77;;;;;;;;;;4987057;28;20179;-56
2022/10/03 09:27:29;;;;;;;17.00;9.03;;;;;;;;;;4989046;28;20187;-56
2022/10/03 09:30:13;;;;;;;14.90;9.07;;;;;;;;;;4987350;28;20175;-56
2022/10/03 09:33:05;;;;;;;14.53;8.53;;;;;;;;;;4975585;28;20270;-56
2022/10/03 09:35:37;;;;;;;23.50;10.03;;;;;;;;;;4986161;28;20179;-56
2022/10/03 09:38:04;;;;;;;15.20;9.60;;;;;;;;;;4987552;28;20246;-56
2022/10/03 09:40:35;;;;;;;18.50;10.70;;;;;;;;;;4996723;28;20186;-56
2022/10/03 09:43:01;;;;;;;20.33;10.20;;;;;;;;;;4970019;28;20669;-56
2022/10/03 09:45:46;;;;;;;17.23;9.23;;;;;;;;;;5001200;28;20178;-57
2022/10/03 09:48:12;;;;;;;14.20;8.43;;;;;;;;;;4999540;28;20222;-56
2022/10/03 09:50:45;;;;;;;17.83;10.17;;;;;;;;;;4989255;28;20183;-56
2022/10/03 09:53:36;;;;;;;21.47;10.70;;;;;;;;;;5005848;28;20297;-56
2022/10/03 09:56:23;;;;;;;16.23;9.20;;;;;;;;;;4980467;28;20249;-55
2022/10/03 09:59:05;;;;;;;16.80;9.87;;;;;;;;;;4986427;28;20630;-55
2022/10/03 10:01:34;;;;;;;14.03;8.33;;;;;;;;;;4996299;28;20236;-56
2022/10/03 10:04:12;;;;;;;15.20;9.13;;;;;;;;;;4991768;28;20606;-56
2022/10/03 10:07:01;;;;;;;21.65;11.63;;;;;;;;;;4967098;28;20418;-55
2022/10/03 10:09:36;;;;;;;18.43;9.90;;;;;;;;;;4980581;28;20184;-56
2022/10/03 10:12:02;;;;;;;15.50;8.70;;;;;;;;;;4988309;28;20186;-55
2022/10/03 10:14:45;;;;;;;12.07;7.20;;;;;;;;;;4996884;28;20188;-55
2022/10/03 10:17:29;;;;;;;16.20;8.33;;;;;;;;;;4981829;28;20199;-55
2022/10/03 10:20:07;;;;;;;19.73;7.73;;;;;;;;;;4991300;28;20173;-55
2022/10/03 10:22:51;;;;;;;11.30;6.90;;;;;;;;;;4984791;28;20215;-55
2022/10/03 10:25:19;;;;;;;13.47;6.43;;;;;;;;;;4986225;28;20223;-56
2022/10/03 10:27:45;;;;;;;13.37;6.33;;;;;;;;;;4987190;28;20172;-56
2022/10/03 10:30:22;;;;;;;14.70;5.97;;;;;;;;;;4988557;28;20599;-56
2022/10/03 10:32:57;;;;;;;9.50;5.80;;;;;;;;;;4989422;28;20217;-55
2022/10/03 10:35:23;;;;;;;8.60;4.20;;;;;;;;;;4979065;28;20667;-57
2022/10/03 10:38:08;;;;;;;9.60;4.03;;;;;;;;;;4971087;28;22428;-56
2022/10/03 10:40:35;;;;;;;5.53;2.90;;;;;;;;;;4978155;28;20210;-56
2022/10/03 10:43:05;;;;;;;12.90;3.10;;;;;;;;;;4980833;28;20610;-56
2022/10/03 10:45:50;;;;;;;5.20;2.23;;;;;;;;;;4976037;28;20632;-56
2022/10/03 10:48:16;;;;;;;5.77;2.80;;;;;;;;;;4982883;28;20580;-56
2022/10/03 10:50:55;;;;;;;5.90;2.13;;;;;;;;;;4984783;28;20186;-57
2022/10/03 10:53:40;;;;;;;7.53;2.50;;;;;;;;;;4984472;28;20209;-56
2022/10/03 10:56:44;;;;;;;6.57;2.30;;;;;;;;;;4978725;28;20226;-56
2022/10/03 10:59:13;;;;;;;6.67;2.50;;;;;;;;;;4979513;28;20183;-56
2022/10/03 11:01:58;;;;;;;5.60;2.20;;;;;;;;;;4978856;28;20180;-57
2022/10/03 11:04:38;;;;;;;3.57;1.97;;;;;;;;;;4982377;28;20190;-57
2022/10/03 11:07:24;;;;;;;3.80;2.27;;;;;;;;;;4981986;28;20192;-56
2022/10/03 11:09:53;;;;;;;4.27;2.20;;;;;;;;;;4952413;28;20689;-56
2022/10/03 11:12:20;;;;;;;9.17;3.10;;;;;;;;;;4980122;28;20337;-56
2022/10/03 11:15:05;;;;;;;4.90;2.30;;;;;;;;;;4983305;28;20167;-56
2022/10/03 11:17:49;;;;;;;5.43;2.53;;;;;;;;;;4980288;28;20183;-56
2022/10/03 11:20:34;;;;;;;3.90;2.43;;;;;;;;;;4980680;28;20180;-56
2022/10/03 11:23:16;;;;;;;4.13;2.47;;;;;;;;;;4982098;28;20704;-56
2022/10/03 11:25:58;;;;;;;3.67;2.37;;;;;;;;;;4974933;28;20267;-56
2022/10/03 11:28:30;;;;;;;3.20;2.23;;;;;;;;;;4988140;28;20175;-56
2022/10/03 11:31:11;;;;;;;5.37;2.60;;;;;;;;;;4980583;28;20717;-57
2022/10/03 11:33:52;;;;;;;7.40;2.20;;;;;;;;;;4977811;28;20216;-57
2022/10/03 11:36:37;;;;;;;4.80;2.20;;;;;;;;;;4979983;28;20188;-56
2022/10/03 11:39:19;;;;;;;4.53;2.40;;;;;;;;;;4996948;28;20256;-57
2022/10/03 11:41:51;;;;;;;5.33;2.23;;;;;;;;;;4988541;28;20636;-56
2022/10/03 11:44:17;;;;;;;4.80;2.23;;;;;;;;;;4980116;28;20191;-57
2022/10/03 11:47:08;;;;;;;4.40;2.33;;;;;;;;;;4979464;28;20589;-56
2022/10/03 11:49:46;;;;;;;3.63;2.33;;;;;;;;;;4981118;28;20682;-56
2022/10/03 11:52:26;;;;;;;5.83;2.23;;;;;;;;;;4993755;28;20175;-56
2022/10/03 11:55:01;;;;;;;8.97;3.83;;;;;;;;;;4979394;28;20172;-57
2022/10/03 11:57:30;;;;;;;4.63;3.07;;;;;;;;;;4975770;28;20194;-60
2022/10/03 12:00:18;;;;;;;4.50;2.13;;;;;;;;;;4981631;28;21310;-56
2022/10/03 12:03:03;;;;;;;5.43;2.53;;;;;;;;;;4985792;28;20544;-56
2022/10/03 12:05:29;;;;;;;9.60;2.20;;;;;;;;;;4990470;28;20178;-56
2022/10/03 12:11:10;;;;;;;9.13;2.80;;;;;;;;;;4984405;28;20235;-56
2022/10/03 12:13:39;;;;;;;8.10;2.83;;;;;;;;;;4962085;28;20600;-56
2022/10/03 12:16:10;;;;;;;3.37;2.40;;;;;;;;;;4978712;28;20619;-56
2022/10/03 12:18:41;;;;;;;3.57;2.40;;;;;;;;;;4987717;28;20177;-56
2022/10/03 12:21:26;;;;;;;7.10;3.03;;;;;;;;;;4986041;28;20182;-56
2022/10/03 12:24:04;;;;;;;3.77;2.30;;;;;;;;;;4991438;28;20194;-56
2022/10/03 12:26:43;;;;;;;5.87;2.40;;;;;;;;;;5000370;28;20530;-56
2022/10/03 12:29:13;;;;;;;6.93;2.07;;;;;;;;;;4991135;28;20190;-56
2022/10/03 12:31:54;;;;;;;4.40;2.10;;;;;;;;;;4971135;28;20187;-56
2022/10/03 12:34:49;;;;;;;6.30;2.20;;;;;;;;;;4997137;28;20732;-56
2022/10/03 12:37:24;;;;;;;2.50;2.13;;;;;;;;;;4962574;28;20543;-56
2022/10/03 12:40:04;;;;;;;7.20;2.30;;;;;;;;;;4979422;28;20262;-56
2022/10/03 12:42:31;;;;;;;6.33;2.10;;;;;;;;;;4984569;28;20190;-56
2022/10/03 12:45:12;;;;;;;6.43;2.37;;;;;;;;;;4977480;28;20225;-56
2022/10/03 12:47:49;;;;;;;5.43;2.40;;;;;;;;;;4982987;28;20716;-56
2022/10/03 12:50:33;;;;;;;3.67;1.90;;;;;;;;;;4975151;28;20182;-57
2022/10/03 12:53:22;;;;;;;6.13;2.40;;;;;;;;;;4979397;28;20218;-57
2022/10/03 12:56:18;;;;;;;3.60;2.30;;;;;;;;;;4985917;28;20186;-56
2022/10/03 12:59:07;;;;;;;5.20;2.10;;;;;;;;;;4966286;28;20278;-58
2022/10/03 13:01:51;;;;;;;7.40;3.37;;;;;;;;;;4966663;28;20256;-55
2022/10/03 13:04:37;;;;;;;4.03;2.30;;;;;;;;;;4978298;28;20221;-56
2022/10/03 13:07:04;;;;;;;8.50;2.33;;;;;;;;;;4982710;28;20192;-55
2022/10/03 13:09:31;;;;;;;3.87;1.60;;;;;;;;;;4985373;28;20545;-56
2022/10/03 13:12:07;;;;;;;4.03;1.87;;;;;;;;;;4986157;28;20182;-55
2022/10/03 13:15:05;;;;;;;5.17;2.33;;;;;;;;;;4982346;28;20462;-56
2022/10/03 13:17:46;;;;;;;4.30;2.20;;;;;;;;;;4987500;28;20191;-56
2022/10/03 13:20:19;;;;;;;3.70;2.00;;;;;;;;;;4982880;28;20250;-56
2022/10/03 13:23:15;;;;;;;3.93;2.20;;;;;;;;;;4995388;28;20216;-56
2022/10/03 13:25:46;;;;;;;4.53;1.87;;;;;;;;;;4953472;28;20223;-56
2022/10/03 13:28:14;;;;;;;3.43;1.90;;;;;;;;;;4986523;28;20193;-56
2022/10/03 13:30:40;;;;;;;5.83;2.57;;;;;;;;;;4984996;28;21054;-57
2022/10/03 13:33:09;;;;;;;4.23;1.83;;;;;;;;;;4992210;28;20199;-57
2022/10/03 13:35:57;;;;;;;2.53;1.60;;;;;;;;;;4988380;28;20183;-56
2022/10/03 13:38:27;;;;;;;4.67;2.10;;;;;;;;;;4978924;28;20195;-57
2022/10/03 13:40:56;;;;;;;2.70;1.70;;;;;;;;;;4987478;28;20289;-56
2022/10/03 13:43:34;;;;;;;3.90;1.93;;;;;;;;;;4978534;28;20187;-56
2022/10/03 13:46:01;;;;;;;4.40;1.80;;;;;;;;;;4987412;28;20540;-56
2022/10/03 13:48:28;;;;;;;2.97;2.20;;;;;;;;;;4973683;28;20748;-56
2022/10/03 13:51:01;;;;;;;2.67;2.20;;;;;;;;;;4980417;28;20279;-55
2022/10/03 13:53:51;;;;;;;4.87;1.80;;;;;;;;;;4977643;28;20203;-56
2022/10/03 13:56:20;;;;;;;4.40;2.37;;;;;;;;;;4988615;28;20698;-56
2022/10/03 13:58:46;;;;;;;4.03;2.10;;;;;;;;;;4992224;28;20183;-56
2022/10/03 14:01:22;;;;;;;3.70;2.90;;;;;;;;;;5000368;28;20217;-57
2022/10/03 14:04:07;;;;;;;4.43;1.80;;;;;;;;;;4975415;28;20554;-55
2022/10/03 14:06:41;;;;;;;3.53;1.90;;;;;;;;;;5001273;28;20229;-55
2022/10/03 14:09:26;;;;;;;2.63;1.70;;;;;;;;;;5009026;28;20192;-55
2022/10/03 14:12:10;;;;;;;3.53;1.70;;;;;;;;;;4995487;28;20178;-52
2022/10/03 14:14:56;;;;;;;5.37;2.13;;;;;;;;;;4987117;28;20190;-53
2022/10/03 14:17:23;;;;;;;4.13;1.97;;;;;;;;;;4958670;28;20559;-53
2022/10/03 14:20:11;;;;;;;3.93;2.00;;;;;;;;;;4989513;28;20167;-55
2022/10/03 14:22:49;;;;;;;2.37;1.80;;;;;;;;;;5001263;28;20588;-54
2022/10/03 14:25:21;;;;;;;2.50;1.73;;;;;;;;;;4993111;28;20266;-55
2022/10/03 14:28:10;;;;;;;4.73;2.33;;;;;;;;;;4989282;28;20190;-54
2022/10/03 14:30:54;;;;;;;2.93;1.70;;;;;;;;;;4996557;28;20280;-54
2022/10/03 14:33:41;;;;;;;6.23;2.50;;;;;;;;;;4987775;28;20198;-54
2022/10/03 14:36:17;;;;;;;4.90;2.83;;;;;;;;;;4994779;28;20645;-54
2022/10/03 14:39:00;;;;;;;7.57;2.17;;;;;;;;;;5004550;28;20206;-54
2022/10/03 14:41:32;;;;;;;3.43;2.07;;;;;;;;;;4989816;28;20186;-54
2022/10/03 14:44:00;;;;;;;4.10;2.70;;;;;;;;;;4990407;28;20187;-54
2022/10/03 14:46:28;;;;;;;6.93;2.37;;;;;;;;;;4986579;28;20542;-54
2022/10/03 14:48:57;;;;;;;3.53;1.93;;;;;;;;;;4989987;28;20227;-54
2022/10/03 14:51:23;;;;;;;4.03;2.23;;;;;;;;;;4990467;28;20190;-54
2022/10/03 14:54:01;;;;;;;4.70;1.93;;;;;;;;;;4987541;28;20720;-54
2022/10/03 14:56:27;;;;;;;2.17;1.73;;;;;;;;;;4987693;28;20167;-54
2022/10/03 14:58:54;;;;;;;3.57;1.77;;;;;;;;;;4988625;28;20629;-55
2022/10/03 15:01:23;;;;;;;4.20;2.30;;;;;;;;;;4988663;28;20693;-54
2022/10/03 15:03:55;;;;;;;6.47;1.97;;;;;;;;;;4992042;28;20175;-55
2022/10/03 15:06:21;;;;;;;3.37;2.10;;;;;;;;;;4990964;28;20199;-54
2022/10/03 15:08:55;;;;;;;4.00;1.80;;;;;;;;;;4994950;28;20186;-54
2022/10/03 15:11:26;;;;;;;7.07;2.50;;;;;;;;;;4996737;28;20209;-54
2022/10/03 15:13:55;;;;;;;2.43;1.90;;;;;;;;;;4990031;28;20213;-54
2022/10/03 15:16:22;;;;;;;3.37;1.70;;;;;;;;;;4987301;28;20242;-55
2022/10/03 15:18:53;;;;;;;3.67;2.00;;;;;;;;;;4992434;28;20209;-54
2022/10/03 15:21:19;;;;;;;2.77;2.07;;;;;;;;;;4988628;28;20191;-54
2022/10/03 15:23:57;;;;;;;2.20;1.97;;;;;;;;;;4994033;28;20175;-54
2022/10/03 15:26:23;;;;;;;2.83;2.00;;;;;;;;;;4992215;28;20179;-54
2022/10/03 15:28:54;;;;;;;6.03;2.00;;;;;;;;;;4990410;28;20636;-54
2022/10/03 15:31:21;;;;;;;4.50;1.83;;;;;;;;;;4989946;28;20194;-54
2022/10/03 15:33:50;;;;;;;2.33;1.67;;;;;;;;;;5011399;28;20730;-53
2022/10/03 15:36:21;;;;;;;5.00;1.87;;;;;;;;;;4994597;28;20179;-54
2022/10/03 15:38:52;;;;;;;2.67;1.90;;;;;;;;;;4992135;28;20214;-54
2022/10/03 15:41:25;;;;;;;1.63;1.53;;;;;;;;;;4985944;28;20585;-54
2022/10/03 15:43:59;;;;;;;2.90;1.40;;;;;;;;;;4992215;28;20555;-53
2022/10/03 15:46:39;;;;;;;4.53;1.80;;;;;;;;;;5000183;28;20186;-54
2022/10/03 15:49:25;;;;;;;6.23;1.90;;;;;;;;;;4996967;28;20218;-54
2022/10/03 15:51:53;;;;;;;4.40;1.80;;;;;;;;;;4993277;28;20553;-54
2022/10/03 15:54:24;;;;;;;5.37;2.33;;;;;;;;;;4988684;28;20195;-54